Time;durP1;ratioP1;P1;durP2;ratioP2;P2;SDS_P1;SDS_P2;PMS_P1;PMS_P2;Temp;Humidity;BMP_temperature;BMP_pressure;BME280_temperature;BME280_humidity;BME280_pressure;Samples;Min_cycle;Max_cycle;Signal;HPM_P1;HPM_P2
2022/01/30 00:00:27;;;;;;;14.97;9.63;;;;;;;;;;5100282;28;20450;-71
2022/01/30 00:02:55;;;;;;;15.07;9.13;;;;;;;;;;5099424;28;20456;-71
2022/01/30 00:05:23;;;;;;;15.07;8.90;;;;;;;;;;5100424;28;20448;-71
2022/01/30 00:07:52;;;;;;;14.73;9.00;;;;;;;;;;5099695;28;20861;-71
2022/01/30 00:10:20;;;;;;;15.70;9.60;;;;;;;;;;5100351;28;20442;-71
2022/01/30 00:12:52;;;;;;;15.63;8.67;;;;;;;;;;5099731;28;20455;-71
2022/01/30 00:15:34;;;;;;;14.50;8.33;;;;;;;;;;5100414;28;20445;-71
2022/01/30 00:18:12;;;;;;;16.30;9.80;;;;;;;;;;5099850;28;20472;-71
2022/01/30 00:20:44;;;;;;;16.60;9.20;;;;;;;;;;5099787;28;20443;-71
2022/01/30 00:23:18;;;;;;;16.77;9.73;;;;;;;;;;5104096;28;20450;-71
2022/01/30 00:25:50;;;;;;;14.27;9.40;;;;;;;;;;5120394;28;20442;-71
2022/01/30 00:28:20;;;;;;;14.30;9.10;;;;;;;;;;5110142;28;20466;-71
2022/01/30 00:30:48;;;;;;;15.90;9.07;;;;;;;;;;5099927;28;20439;-71
2022/01/30 00:33:16;;;;;;;14.83;8.40;;;;;;;;;;5108911;28;20447;-71
2022/01/30 00:35:44;;;;;;;12.63;8.70;;;;;;;;;;5119836;28;20447;-71
2022/01/30 00:38:18;;;;;;;16.90;8.37;;;;;;;;;;5112933;28;20502;-71
2022/01/30 00:40:46;;;;;;;11.47;7.73;;;;;;;;;;5102876;28;20443;-71
2022/01/30 00:43:15;;;;;;;11.93;7.47;;;;;;;;;;5099296;28;20459;-71
2022/01/30 00:45:44;;;;;;;13.47;8.93;;;;;;;;;;5099263;28;20483;-71
2022/01/30 00:48:12;;;;;;;13.83;8.30;;;;;;;;;;5098885;28;20532;-71
2022/01/30 00:50:40;;;;;;;9.93;7.50;;;;;;;;;;5099674;28;20446;-71
2022/01/30 00:53:08;;;;;;;11.23;7.40;;;;;;;;;;5098947;28;20451;-71
2022/01/30 00:55:38;;;;;;;11.97;8.07;;;;;;;;;;5105455;28;20439;-71
2022/01/30 00:58:06;;;;;;;13.93;8.37;;;;;;;;;;5100173;28;20816;-71
2022/01/30 01:00:34;;;;;;;12.43;7.63;;;;;;;;;;5099364;28;20451;-71
2022/01/30 01:03:03;;;;;;;14.23;8.03;;;;;;;;;;5098803;28;20443;-71
2022/01/30 01:05:33;;;;;;;13.00;7.60;;;;;;;;;;5099057;28;20995;-71
2022/01/30 01:08:09;;;;;;;9.87;7.37;;;;;;;;;;5098887;28;20451;-71
2022/01/30 01:10:43;;;;;;;13.03;7.73;;;;;;;;;;5098784;28;20825;-71
2022/01/30 01:13:28;;;;;;;13.30;8.10;;;;;;;;;;5115618;28;20446;-71
2022/01/30 01:24:13;;;;;;;13.70;7.53;;;;;;;;;;5119329;28;20446;-71
2022/01/30 01:26:42;;;;;;;12.03;7.40;;;;;;;;;;5113893;28;20474;-71
2022/01/30 01:29:10;;;;;;;17.27;8.30;;;;;;;;;;5098766;28;20447;-71
2022/01/30 01:31:38;;;;;;;16.63;9.57;;;;;;;;;;5098042;28;20960;-70
2022/01/30 01:34:24;;;;;;;13.13;7.63;;;;;;;;;;5098595;28;21027;-71
2022/01/30 01:36:52;;;;;;;16.70;8.43;;;;;;;;;;5104271;28;20504;-71
2022/01/30 01:39:20;;;;;;;12.53;8.30;;;;;;;;;;5106670;28;20930;-71
2022/01/30 01:41:49;;;;;;;12.03;7.80;;;;;;;;;;5098155;28;20458;-71
2022/01/30 01:44:20;;;;;;;15.90;9.03;;;;;;;;;;5098133;28;20443;-71
2022/01/30 01:46:48;;;;;;;12.83;8.20;;;;;;;;;;5097990;28;20463;-71
2022/01/30 01:49:24;;;;;;;13.07;8.33;;;;;;;;;;5098149;28;20451;-71
2022/01/30 01:52:14;;;;;;;14.00;8.50;;;;;;;;;;5098238;28;20446;-71
2022/01/30 01:54:40;;;;;;;16.40;8.80;;;;;;;;;;5097856;28;20450;-71
2022/01/30 01:57:09;;;;;;;15.07;8.77;;;;;;;;;;5107540;28;20479;-71
2022/01/30 01:59:37;;;;;;;14.03;8.70;;;;;;;;;;5098080;28;20490;-71
2022/01/30 02:02:05;;;;;;;13.40;8.37;;;;;;;;;;5097886;28;21084;-71
2022/01/30 02:04:33;;;;;;;14.63;8.60;;;;;;;;;;5097839;28;20885;-71
2022/01/30 02:07:21;;;;;;;11.77;7.97;;;;;;;;;;5097767;28;20482;-71
2022/01/30 02:09:49;;;;;;;14.40;8.73;;;;;;;;;;5097985;28;20949;-72
2022/01/30 02:12:24;;;;;;;13.43;7.80;;;;;;;;;;5097990;28;20458;-71
2022/01/30 02:15:08;;;;;;;13.53;8.47;;;;;;;;;;5097927;28;20443;-71
2022/01/30 02:25:58;;;;;;;14.17;9.13;;;;;;;;;;5116479;28;20479;-71
2022/01/30 02:28:28;;;;;;;13.33;8.77;;;;;;;;;;5118095;28;20434;-71
2022/01/30 02:31:00;;;;;;;18.17;9.00;;;;;;;;;;5114639;28;20931;-71
2022/01/30 02:33:28;;;;;;;17.17;10.50;;;;;;;;;;5097376;28;20440;-71
2022/01/30 02:35:56;;;;;;;16.67;9.50;;;;;;;;;;5097327;28;20489;-71
2022/01/30 02:38:26;;;;;;;16.07;10.10;;;;;;;;;;5101752;28;20479;-71
2022/01/30 02:40:56;;;;;;;13.83;9.00;;;;;;;;;;5103017;28;20459;-70
2022/01/30 02:43:29;;;;;;;16.33;9.30;;;;;;;;;;5118099;28;20439;-71
2022/01/30 02:46:07;;;;;;;16.87;9.70;;;;;;;;;;5114305;28;20497;-71
2022/01/30 02:48:47;;;;;;;14.67;10.00;;;;;;;;;;5097293;28;20443;-71
2022/01/30 02:51:18;;;;;;;21.00;10.37;;;;;;;;;;5097865;28;20961;-71
2022/01/30 02:53:55;;;;;;;13.63;8.57;;;;;;;;;;5097650;28;20926;-71
2022/01/30 02:56:23;;;;;;;15.63;9.50;;;;;;;;;;5108111;28;20466;-71
2022/01/30 02:58:51;;;;;;;16.70;9.43;;;;;;;;;;5117640;28;20482;-70
2022/01/30 03:01:19;;;;;;;16.10;10.00;;;;;;;;;;5114186;28;20450;-71
2022/01/30 03:03:48;;;;;;;18.40;10.83;;;;;;;;;;5096941;28;20875;-70
2022/01/30 03:06:15;;;;;;;12.30;8.60;;;;;;;;;;5098253;28;20978;-71
2022/01/30 03:08:43;;;;;;;14.23;9.40;;;;;;;;;;5097462;28;20439;-71
2022/01/30 03:11:13;;;;;;;17.10;10.20;;;;;;;;;;5097278;28;20443;-71
2022/01/30 03:13:41;;;;;;;17.20;9.27;;;;;;;;;;5097449;28;20444;-71
2022/01/30 03:16:09;;;;;;;14.87;9.87;;;;;;;;;;5097327;28;20468;-70
2022/01/30 03:18:37;;;;;;;14.47;9.70;;;;;;;;;;5099948;28;21054;-71
2022/01/30 03:21:05;;;;;;;16.70;9.73;;;;;;;;;;5100753;28;20440;-70
2022/01/30 03:23:36;;;;;;;13.33;9.13;;;;;;;;;;5101276;28;20473;-71
2022/01/30 03:26:04;;;;;;;15.90;9.90;;;;;;;;;;5101389;28;20541;-71
2022/01/30 03:28:34;;;;;;;14.87;9.20;;;;;;;;;;5121631;28;20449;-71
2022/01/30 03:31:05;;;;;;;16.90;10.13;;;;;;;;;;5121002;28;20442;-71
2022/01/30 03:33:33;;;;;;;15.40;9.80;;;;;;;;;;5121046;28;20446;-70
2022/01/30 03:36:01;;;;;;;15.60;9.67;;;;;;;;;;5120130;28;20474;-70
2022/01/30 03:38:29;;;;;;;16.43;10.70;;;;;;;;;;5116164;28;20485;-70
2022/01/30 03:40:57;;;;;;;16.07;9.70;;;;;;;;;;5100578;28;20450;-70
2022/01/30 03:43:25;;;;;;;15.57;9.97;;;;;;;;;;5101152;28;20450;-71
2022/01/30 03:45:55;;;;;;;15.30;10.33;;;;;;;;;;5100650;28;20469;-70
2022/01/30 03:48:23;;;;;;;16.03;10.03;;;;;;;;;;5120127;28;20465;-71
2022/01/30 03:50:51;;;;;;;15.47;10.40;;;;;;;;;;5120863;28;20526;-71
2022/01/30 03:53:19;;;;;;;20.57;10.20;;;;;;;;;;5100318;28;20443;-71
2022/01/30 03:55:50;;;;;;;15.90;9.87;;;;;;;;;;5108606;28;20443;-71
2022/01/30 03:58:19;;;;;;;15.57;10.27;;;;;;;;;;5100264;28;20841;-71
2022/01/30 04:00:47;;;;;;;18.30;12.00;;;;;;;;;;5100671;28;20444;-71
2022/01/30 04:03:17;;;;;;;16.83;10.03;;;;;;;;;;5119434;28;20474;-71
2022/01/30 04:05:45;;;;;;;15.67;9.80;;;;;;;;;;5120538;27;20784;-71
2022/01/30 04:08:13;;;;;;;15.50;10.30;;;;;;;;;;5119826;28;20500;-71
2022/01/30 04:10:41;;;;;;;17.63;10.77;;;;;;;;;;5120837;28;20443;-70
2022/01/30 04:13:09;;;;;;;20.07;9.60;;;;;;;;;;5120057;28;20820;-71
2022/01/30 04:15:38;;;;;;;13.03;10.33;;;;;;;;;;5120294;27;20788;-71
2022/01/30 04:18:06;;;;;;;17.13;10.33;;;;;;;;;;5101425;28;20448;-71
2022/01/30 04:20:36;;;;;;;17.27;10.57;;;;;;;;;;5100176;28;20446;-71
2022/01/30 04:23:04;;;;;;;18.13;10.67;;;;;;;;;;5099551;28;20462;-71
2022/01/30 04:25:32;;;;;;;18.03;9.80;;;;;;;;;;5099725;28;20477;-71
2022/01/30 04:28:00;;;;;;;16.23;10.23;;;;;;;;;;5116079;28;20458;-71
2022/01/30 04:30:28;;;;;;;16.27;10.13;;;;;;;;;;5119601;28;20462;-71
2022/01/30 04:32:57;;;;;;;15.90;10.83;;;;;;;;;;5103106;28;20454;-71
2022/01/30 04:35:27;;;;;;;14.50;9.47;;;;;;;;;;5099708;28;20535;-71
2022/01/30 04:38:10;;;;;;;20.17;10.70;;;;;;;;;;5099190;28;20485;-71
2022/01/30 04:57:24;;;;;;;15.53;9.57;;;;;;;;;;5107132;28;20468;-71
2022/01/30 05:00:06;;;;;;;15.37;9.50;;;;;;;;;;5099093;28;20485;-71
2022/01/30 05:02:48;;;;;;;15.00;9.33;;;;;;;;;;5098640;28;20820;-71
2022/01/30 05:08:03;;;;;;;17.27;8.90;;;;;;;;;;5115719;28;20453;-71
2022/01/30 05:10:33;;;;;;;13.37;8.50;;;;;;;;;;5119391;28;20537;-71
2022/01/30 05:13:03;;;;;;;13.33;8.53;;;;;;;;;;5101714;28;20519;-71
2022/01/30 05:15:32;;;;;;;15.70;8.77;;;;;;;;;;5098793;28;20439;-71
2022/01/30 05:18:00;;;;;;;13.40;8.30;;;;;;;;;;5110642;28;20446;-71
2022/01/30 05:20:29;;;;;;;12.23;7.83;;;;;;;;;;5098571;27;20479;-71
2022/01/30 05:22:57;;;;;;;14.80;7.87;;;;;;;;;;5098756;28;20507;-71
2022/01/30 05:25:26;;;;;;;15.83;8.57;;;;;;;;;;5098848;28;20448;-71
2022/01/30 05:27:55;;;;;;;12.40;7.50;;;;;;;;;;5108230;28;20973;-71
2022/01/30 05:30:23;;;;;;;14.27;7.97;;;;;;;;;;5115478;28;20453;-71
2022/01/30 05:32:52;;;;;;;12.70;8.63;;;;;;;;;;5118594;28;20472;-71
2022/01/30 05:35:20;;;;;;;13.87;8.37;;;;;;;;;;5118672;28;20458;-71
2022/01/30 05:37:49;;;;;;;11.23;6.80;;;;;;;;;;5116207;28;20489;-71
2022/01/30 05:40:17;;;;;;;13.80;7.07;;;;;;;;;;5098740;28;20476;-70
2022/01/30 05:42:45;;;;;;;12.30;7.20;;;;;;;;;;5108541;28;20447;-70
2022/01/30 05:45:19;;;;;;;14.97;7.57;;;;;;;;;;5118840;28;20980;-72
2022/01/30 05:47:53;;;;;;;13.03;7.53;;;;;;;;;;5105917;28;20467;-71
2022/01/30 05:50:21;;;;;;;12.13;7.50;;;;;;;;;;5098470;28;20446;-71
2022/01/30 05:52:49;;;;;;;12.93;7.77;;;;;;;;;;5097831;28;20458;-71
2022/01/30 05:55:17;;;;;;;10.87;6.83;;;;;;;;;;5102192;28;20449;-71
2022/01/30 05:57:47;;;;;;;12.23;7.03;;;;;;;;;;5104995;28;20474;-71
2022/01/30 06:00:17;;;;;;;12.30;6.77;;;;;;;;;;5097790;28;20845;-71
2022/01/30 06:02:45;;;;;;;10.97;7.37;;;;;;;;;;5103917;28;20447;-70
2022/01/30 06:05:15;;;;;;;16.40;7.53;;;;;;;;;;5097979;28;20450;-70
2022/01/30 06:07:49;;;;;;;13.70;7.40;;;;;;;;;;5097820;28;21023;-70
2022/01/30 06:10:17;;;;;;;14.47;6.70;;;;;;;;;;5117316;28;20808;-71
2022/01/30 06:12:45;;;;;;;15.80;7.50;;;;;;;;;;5118188;28;20446;-71
2022/01/30 06:15:14;;;;;;;13.87;6.80;;;;;;;;;;5118346;28;20937;-70
2022/01/30 06:17:44;;;;;;;15.47;6.57;;;;;;;;;;5105741;28;20558;-71
2022/01/30 06:20:12;;;;;;;11.67;6.03;;;;;;;;;;5097820;28;20479;-71
2022/01/30 06:22:40;;;;;;;12.57;6.60;;;;;;;;;;5098217;28;20449;-71
2022/01/30 06:25:13;;;;;;;12.93;6.73;;;;;;;;;;5097863;28;20455;-71
2022/01/30 06:27:42;;;;;;;13.07;7.10;;;;;;;;;;5106126;28;20467;-71
2022/01/30 06:30:10;;;;;;;9.77;6.17;;;;;;;;;;5109364;28;20450;-71
2022/01/30 06:32:38;;;;;;;12.23;7.63;;;;;;;;;;5112463;28;20443;-71
2022/01/30 06:35:08;;;;;;;12.70;6.87;;;;;;;;;;5114757;28;20457;-71
2022/01/30 06:37:36;;;;;;;12.27;7.13;;;;;;;;;;5117613;28;20995;-71
2022/01/30 06:40:05;;;;;;;13.73;7.67;;;;;;;;;;5105871;28;20478;-71
2022/01/30 06:42:34;;;;;;;9.27;6.43;;;;;;;;;;5118051;28;20445;-71
2022/01/30 06:45:01;;;;;;;14.97;8.10;;;;;;;;;;5111519;28;20447;-71
2022/01/30 06:47:29;;;;;;;13.77;7.40;;;;;;;;;;5097152;28;20463;-71
2022/01/30 06:49:57;;;;;;;12.57;6.87;;;;;;;;;;5097875;28;20447;-71
2022/01/30 06:52:27;;;;;;;12.97;7.17;;;;;;;;;;5098511;28;20444;-71
2022/01/30 06:54:55;;;;;;;13.50;7.70;;;;;;;;;;5102324;28;20447;-71
2022/01/30 06:57:22;;;;;;;9.57;6.77;;;;;;;;;;5108870;28;20455;-71
2022/01/30 06:59:50;;;;;;;12.97;7.33;;;;;;;;;;5101028;28;20498;-71
2022/01/30 07:02:18;;;;;;;13.70;7.50;;;;;;;;;;5101464;28;20443;-71
2022/01/30 07:04:48;;;;;;;10.73;7.33;;;;;;;;;;5107578;28;20503;-71
2022/01/30 07:07:16;;;;;;;14.57;7.40;;;;;;;;;;5122088;28;20490;-71
2022/01/30 07:09:45;;;;;;;12.07;7.27;;;;;;;;;;5119071;28;20447;-71
2022/01/30 07:12:13;;;;;;;10.00;6.80;;;;;;;;;;5121297;28;20457;-71
2022/01/30 07:14:42;;;;;;;12.20;7.13;;;;;;;;;;5121483;28;20446;-71
2022/01/30 07:17:10;;;;;;;9.93;5.97;;;;;;;;;;5121309;28;20458;-71
2022/01/30 07:19:38;;;;;;;11.13;7.20;;;;;;;;;;5103604;28;20458;-71
2022/01/30 07:22:06;;;;;;;8.80;6.50;;;;;;;;;;5121587;27;20526;-71
2022/01/30 07:24:34;;;;;;;12.40;6.73;;;;;;;;;;5121335;27;20439;-71
2022/01/30 07:27:03;;;;;;;11.20;6.97;;;;;;;;;;5112044;28;20463;-71
2022/01/30 07:29:31;;;;;;;12.33;7.23;;;;;;;;;;5118660;28;20470;-71
2022/01/30 07:31:59;;;;;;;11.53;6.80;;;;;;;;;;5100570;28;20927;-71
2022/01/30 07:34:27;;;;;;;11.73;7.93;;;;;;;;;;5100522;28;20949;-71
2022/01/30 07:36:57;;;;;;;9.40;6.57;;;;;;;;;;5100712;28;20487;-71
2022/01/30 07:39:29;;;;;;;11.53;6.93;;;;;;;;;;5110857;28;20438;-71
2022/01/30 07:41:56;;;;;;;13.67;7.97;;;;;;;;;;5100812;28;20486;-71
2022/01/30 07:44:26;;;;;;;11.40;7.20;;;;;;;;;;5100528;28;20573;-71
2022/01/30 07:46:54;;;;;;;14.03;7.63;;;;;;;;;;5118773;28;20220;-71
2022/01/30 07:49:22;;;;;;;10.27;6.50;;;;;;;;;;5120872;27;20445;-71
2022/01/30 07:51:50;;;;;;;13.67;6.47;;;;;;;;;;5111295;28;20201;-71
2022/01/30 07:54:18;;;;;;;9.80;6.43;;;;;;;;;;5100492;28;20443;-71
2022/01/30 07:56:46;;;;;;;9.77;6.53;;;;;;;;;;5115577;28;20463;-71
2022/01/30 07:59:14;;;;;;;10.27;6.63;;;;;;;;;;5101104;28;20289;-71
2022/01/30 08:01:43;;;;;;;12.53;6.97;;;;;;;;;;5100168;28;20480;-71
2022/01/30 08:04:11;;;;;;;10.17;6.50;;;;;;;;;;5113695;28;20450;-71
2022/01/30 08:06:39;;;;;;;8.60;6.33;;;;;;;;;;5120450;28;20985;-71
2022/01/30 08:09:07;;;;;;;9.97;6.63;;;;;;;;;;5108710;28;20448;-71
2022/01/30 08:11:35;;;;;;;9.13;6.00;;;;;;;;;;5100112;28;20954;-71
2022/01/30 08:14:03;;;;;;;9.67;5.73;;;;;;;;;;5112449;28;20197;-71
2022/01/30 08:16:31;;;;;;;10.90;7.00;;;;;;;;;;5120180;28;20462;-71
2022/01/30 08:19:00;;;;;;;10.80;6.90;;;;;;;;;;5106453;28;20726;-71
2022/01/30 08:21:28;;;;;;;9.33;6.30;;;;;;;;;;5099698;28;20538;-71
2022/01/30 08:23:56;;;;;;;8.47;5.67;;;;;;;;;;5099942;28;20202;-71
2022/01/30 08:26:24;;;;;;;8.33;5.90;;;;;;;;;;5099834;28;20470;-71
2022/01/30 08:28:52;;;;;;;6.90;5.40;;;;;;;;;;5099788;28;20202;-71
2022/01/30 08:31:20;;;;;;;8.20;5.57;;;;;;;;;;5099261;28;20454;-71
2022/01/30 08:33:48;;;;;;;7.60;5.07;;;;;;;;;;5099651;28;20251;-72
2022/01/30 08:36:18;;;;;;;7.37;5.00;;;;;;;;;;5103635;28;20239;-71
2022/01/30 08:38:45;;;;;;;7.97;5.27;;;;;;;;;;5113057;28;20197;-72
2022/01/30 08:41:13;;;;;;;7.53;5.40;;;;;;;;;;5100173;28;20226;-71
2022/01/30 08:43:41;;;;;;;5.50;4.30;;;;;;;;;;5099875;28;20212;-72
2022/01/30 08:46:09;;;;;;;10.83;4.33;;;;;;;;;;5099058;28;20715;-71
2022/01/30 08:48:37;;;;;;;6.67;4.07;;;;;;;;;;5099297;28;20273;-71
2022/01/30 08:51:05;;;;;;;10.37;4.53;;;;;;;;;;5099284;28;20204;-72
2022/01/30 08:53:35;;;;;;;6.17;4.00;;;;;;;;;;5099297;28;20214;-71
2022/01/30 08:56:03;;;;;;;6.10;4.27;;;;;;;;;;5105773;28;20217;-71
2022/01/30 08:58:32;;;;;;;5.97;4.23;;;;;;;;;;5099257;28;20450;-72
2022/01/30 09:01:01;;;;;;;7.67;4.07;;;;;;;;;;5098664;28;20515;-71
2022/01/30 09:03:29;;;;;;;4.50;3.73;;;;;;;;;;5098765;28;20471;-71
2022/01/30 09:05:57;;;;;;;4.77;3.70;;;;;;;;;;5105506;28;20463;-71
2022/01/30 09:08:30;;;;;;;6.63;3.87;;;;;;;;;;5098927;28;20443;-71
2022/01/30 09:10:59;;;;;;;4.90;4.20;;;;;;;;;;5099112;28;20454;-72
2022/01/30 09:13:27;;;;;;;6.10;4.10;;;;;;;;;;5098747;28;20811;-71
2022/01/30 09:15:57;;;;;;;4.43;3.67;;;;;;;;;;5097904;28;20468;-71
2022/01/30 09:18:26;;;;;;;6.47;4.57;;;;;;;;;;5098109;28;20469;-71
2022/01/30 09:20:54;;;;;;;5.20;4.23;;;;;;;;;;5116857;28;20288;-72
2022/01/30 09:23:22;;;;;;;5.27;4.17;;;;;;;;;;5119231;28;20201;-71
2022/01/30 09:25:50;;;;;;;4.60;4.10;;;;;;;;;;5106640;28;20211;-71
2022/01/30 09:28:20;;;;;;;5.23;3.70;;;;;;;;;;5098660;28;20212;-71
2022/01/30 09:30:48;;;;;;;5.87;3.83;;;;;;;;;;5116189;28;20200;-71
2022/01/30 09:33:16;;;;;;;5.63;4.23;;;;;;;;;;5118352;28;20200;-71
2022/01/30 09:35:44;;;;;;;7.07;4.10;;;;;;;;;;5100823;28;20664;-71
2022/01/30 09:38:12;;;;;;;5.13;3.90;;;;;;;;;;5100921;28;20201;-71
2022/01/30 09:40:40;;;;;;;5.00;3.70;;;;;;;;;;5101058;28;20202;-72
2022/01/30 09:43:08;;;;;;;6.03;3.83;;;;;;;;;;5098466;28;20229;-71
2022/01/30 09:45:37;;;;;;;5.60;3.37;;;;;;;;;;5098179;28;20206;-71
2022/01/30 09:48:06;;;;;;;4.17;3.27;;;;;;;;;;5097896;28;20205;-71
2022/01/30 09:50:35;;;;;;;5.57;3.50;;;;;;;;;;5098177;28;20198;-71
2022/01/30 09:53:03;;;;;;;3.63;3.23;;;;;;;;;;5097982;28;20205;-71
2022/01/30 09:55:31;;;;;;;6.03;4.00;;;;;;;;;;5112161;28;20205;-71
2022/01/30 09:57:59;;;;;;;4.10;3.70;;;;;;;;;;5109678;28;20235;-71
2022/01/30 10:00:27;;;;;;;4.50;3.93;;;;;;;;;;5112613;28;20201;-71
2022/01/30 10:02:56;;;;;;;6.40;4.23;;;;;;;;;;5117931;28;20236;-71
2022/01/30 10:05:24;;;;;;;6.10;4.00;;;;;;;;;;5103417;28;20444;-71
2022/01/30 10:07:55;;;;;;;4.07;3.67;;;;;;;;;;5098201;28;20464;-71
2022/01/30 10:10:27;;;;;;;4.87;3.77;;;;;;;;;;5098193;28;20444;-71
2022/01/30 10:13:05;;;;;;;4.63;3.33;;;;;;;;;;5097837;28;20567;-71
2022/01/30 10:15:50;;;;;;;4.43;3.23;;;;;;;;;;5113531;28;20537;-71
2022/01/30 10:18:20;;;;;;;4.67;3.77;;;;;;;;;;5115775;28;20209;-71
2022/01/30 10:20:48;;;;;;;3.13;2.83;;;;;;;;;;5099714;28;20208;-71
2022/01/30 10:23:17;;;;;;;3.60;3.30;;;;;;;;;;5114782;28;20221;-72
2022/01/30 10:25:52;;;;;;;3.70;3.37;;;;;;;;;;5097949;28;20208;-71
2022/01/30 10:28:21;;;;;;;3.33;3.03;;;;;;;;;;5097416;28;20552;-72
2022/01/30 10:30:49;;;;;;;5.53;3.47;;;;;;;;;;5097824;28;20676;-71
2022/01/30 10:33:18;;;;;;;4.33;3.83;;;;;;;;;;5097345;28;20201;-71
2022/01/30 10:35:50;;;;;;;4.80;3.37;;;;;;;;;;5097841;28;20235;-71
2022/01/30 10:38:19;;;;;;;4.27;3.43;;;;;;;;;;5099649;28;20197;-71
2022/01/30 10:40:52;;;;;;;4.43;3.50;;;;;;;;;;5098110;28;20241;-71
2022/01/30 10:43:20;;;;;;;5.20;3.90;;;;;;;;;;5097249;28;20222;-71
2022/01/30 10:45:48;;;;;;;5.83;3.50;;;;;;;;;;5097424;28;20205;-71
2022/01/30 10:48:17;;;;;;;4.50;3.30;;;;;;;;;;5097129;28;20212;-71
2022/01/30 10:50:48;;;;;;;4.57;3.27;;;;;;;;;;5097497;28;20202;-71
2022/01/30 10:53:21;;;;;;;3.80;3.27;;;;;;;;;;5097598;28;20644;-71
2022/01/30 10:55:50;;;;;;;4.03;3.10;;;;;;;;;;5106319;28;20197;-71
2022/01/30 10:58:19;;;;;;;6.63;2.93;;;;;;;;;;5097432;28;20292;-71
2022/01/30 11:00:48;;;;;;;4.40;3.57;;;;;;;;;;5097813;28;20202;-71
2022/01/30 11:03:36;;;;;;;4.43;3.30;;;;;;;;;;5098760;28;20240;-71
2022/01/30 11:06:07;;;;;;;4.40;3.50;;;;;;;;;;5117841;28;20235;-71
2022/01/30 11:08:39;;;;;;;4.10;3.20;;;;;;;;;;5117146;28;20297;-71
2022/01/30 11:11:13;;;;;;;3.63;3.03;;;;;;;;;;5117926;28;20213;-71
2022/01/30 11:17:02;;;;;;;3.13;2.57;;;;;;;;;;5074397;28;20237;-71
2022/01/30 11:19:31;;;;;;;4.33;3.10;;;;;;;;;;5071021;28;20248;-72
2022/01/30 11:22:00;;;;;;;3.33;2.70;;;;;;;;;;5097135;28;20209;-72
2022/01/30 11:24:30;;;;;;;4.97;3.30;;;;;;;;;;5102712;28;20204;-71
2022/01/30 11:26:58;;;;;;;3.30;3.00;;;;;;;;;;5097037;28;20743;-71
2022/01/30 11:29:26;;;;;;;4.87;3.63;;;;;;;;;;5096970;28;20197;-71
2022/01/30 11:31:54;;;;;;;4.60;3.30;;;;;;;;;;5096937;28;20217;-71
2022/01/30 11:34:24;;;;;;;4.60;2.60;;;;;;;;;;5097020;28;20205;-71
2022/01/30 11:36:52;;;;;;;4.37;2.97;;;;;;;;;;5096518;28;20237;-71
2022/01/30 11:39:21;;;;;;;3.93;2.87;;;;;;;;;;5111467;28;20682;-71
2022/01/30 11:42:07;;;;;;;4.43;3.57;;;;;;;;;;5101164;28;20202;-71
2022/01/30 11:44:37;;;;;;;3.97;3.00;;;;;;;;;;5101585;28;20197;-71
2022/01/30 11:47:18;;;;;;;3.97;3.47;;;;;;;;;;5100024;28;20768;-71
2022/01/30 11:49:47;;;;;;;3.40;2.90;;;;;;;;;;5105393;28;20608;-71
2022/01/30 11:52:16;;;;;;;5.37;3.60;;;;;;;;;;5121192;27;20303;-71
2022/01/30 11:54:45;;;;;;;3.73;2.90;;;;;;;;;;5109464;28;20248;-71
2022/01/30 11:57:32;;;;;;;3.20;2.67;;;;;;;;;;5110225;28;20225;-71
2022/01/30 12:00:01;;;;;;;4.13;2.50;;;;;;;;;;5100662;28;20198;-71
2022/01/30 12:02:31;;;;;;;3.47;3.17;;;;;;;;;;5099927;28;20232;-72
2022/01/30 12:05:00;;;;;;;3.30;2.83;;;;;;;;;;5100149;28;20566;-71
2022/01/30 12:07:35;;;;;;;2.47;2.00;;;;;;;;;;5100116;28;20229;-72
2022/01/30 12:10:21;;;;;;;2.70;2.27;;;;;;;;;;5113271;28;20650;-71
2022/01/30 12:12:50;;;;;;;2.63;2.37;;;;;;;;;;5120655;28;20200;-71
2022/01/30 12:15:33;;;;;;;3.03;2.70;;;;;;;;;;5119810;28;20200;-71
2022/01/30 12:18:03;;;;;;;5.10;2.93;;;;;;;;;;5120295;28;20209;-71
2022/01/30 12:20:32;;;;;;;3.37;3.07;;;;;;;;;;5099423;28;20253;-71
2022/01/30 12:23:00;;;;;;;5.23;3.53;;;;;;;;;;5100168;28;20218;-71
2022/01/30 12:25:35;;;;;;;5.90;3.10;;;;;;;;;;5099638;28;20208;-71
2022/01/30 12:28:10;;;;;;;3.70;3.37;;;;;;;;;;5100080;28;20204;-71
2022/01/30 12:30:46;;;;;;;6.03;4.10;;;;;;;;;;5099357;28;20212;-71
2022/01/30 12:33:47;;;;;;;4.17;3.23;;;;;;;;;;5099351;28;20225;-71
2022/01/30 12:36:21;;;;;;;5.70;3.60;;;;;;;;;;5099502;28;20265;-71
2022/01/30 12:38:59;;;;;;;7.60;3.97;;;;;;;;;;5099908;28;20201;-71
2022/01/30 12:41:28;;;;;;;4.87;3.50;;;;;;;;;;5099772;28;20208;-71
2022/01/30 12:43:59;;;;;;;5.63;4.13;;;;;;;;;;5099793;28;20240;-71
2022/01/30 12:46:29;;;;;;;5.67;3.90;;;;;;;;;;5119629;28;20220;-71
2022/01/30 12:49:13;;;;;;;4.73;3.97;;;;;;;;;;5119765;28;20200;-71
2022/01/30 12:51:48;;;;;;;4.07;3.67;;;;;;;;;;5119404;28;20201;-71
2022/01/30 12:54:16;;;;;;;5.60;3.67;;;;;;;;;;5117165;28;20207;-71
2022/01/30 12:56:44;;;;;;;4.37;3.60;;;;;;;;;;5106123;28;20226;-71
2022/01/30 12:59:13;;;;;;;5.20;3.60;;;;;;;;;;5099259;28;20292;-71
2022/01/30 13:01:43;;;;;;;4.43;3.60;;;;;;;;;;5099144;28;20263;-71
2022/01/30 13:04:12;;;;;;;5.57;3.77;;;;;;;;;;5099964;28;20303;-71
2022/01/30 13:06:41;;;;;;;5.97;3.13;;;;;;;;;;5119458;28;20243;-71
2022/01/30 13:09:11;;;;;;;7.37;4.10;;;;;;;;;;5117782;28;20276;-71
2022/01/30 13:11:39;;;;;;;3.97;3.57;;;;;;;;;;5098963;28;20279;-71
2022/01/30 13:14:08;;;;;;;3.47;3.17;;;;;;;;;;5098833;28;20294;-71
2022/01/30 13:16:37;;;;;;;3.30;2.97;;;;;;;;;;5098679;28;20239;-71
2022/01/30 13:19:08;;;;;;;4.57;2.87;;;;;;;;;;5098438;28;20681;-71
2022/01/30 13:21:37;;;;;;;4.60;3.80;;;;;;;;;;5098892;28;20296;-71
2022/01/30 13:24:06;;;;;;;5.67;4.00;;;;;;;;;;5098270;28;20225;-71
2022/01/30 13:26:37;;;;;;;5.93;3.50;;;;;;;;;;5098780;28;20312;-71
2022/01/30 13:29:08;;;;;;;4.00;3.27;;;;;;;;;;5098759;28;20201;-72
2022/01/30 13:31:37;;;;;;;6.10;3.60;;;;;;;;;;5118764;28;20214;-71
2022/01/30 13:34:10;;;;;;;3.20;2.90;;;;;;;;;;5110109;28;20208;-71
2022/01/30 13:36:38;;;;;;;4.53;3.63;;;;;;;;;;5098309;28;20237;-71
2022/01/30 13:39:10;;;;;;;5.33;3.37;;;;;;;;;;5099044;28;20197;-71
2022/01/30 13:41:50;;;;;;;5.20;3.70;;;;;;;;;;5109720;28;20204;-71
2022/01/30 13:44:26;;;;;;;5.07;3.37;;;;;;;;;;5118926;28;20225;-71
2022/01/30 13:47:01;;;;;;;3.63;3.17;;;;;;;;;;5102488;28;20228;-71
2022/01/30 13:49:28;;;;;;;4.40;3.43;;;;;;;;;;5098394;28;20645;-71
2022/01/30 13:52:06;;;;;;;3.73;3.33;;;;;;;;;;5097852;28;20198;-71
2022/01/30 13:54:34;;;;;;;6.40;3.67;;;;;;;;;;5098414;28;20284;-71
2022/01/30 13:57:04;;;;;;;5.40;3.23;;;;;;;;;;5109929;28;20225;-71
2022/01/30 13:59:32;;;;;;;3.87;2.93;;;;;;;;;;5097953;28;20674;-71
2022/01/30 14:02:03;;;;;;;5.40;3.67;;;;;;;;;;5097228;28;20197;-72
2022/01/30 14:04:31;;;;;;;5.37;3.13;;;;;;;;;;5098410;28;20231;-71
2022/01/30 14:07:02;;;;;;;5.13;3.30;;;;;;;;;;5098106;28;20221;-71
2022/01/30 14:09:36;;;;;;;3.83;3.17;;;;;;;;;;5105491;28;20211;-71
2022/01/30 14:12:07;;;;;;;5.83;3.57;;;;;;;;;;5118135;28;20231;-71
2022/01/30 14:14:39;;;;;;;4.40;3.27;;;;;;;;;;5116428;28;20253;-71
2022/01/30 14:17:10;;;;;;;3.83;2.80;;;;;;;;;;5117877;28;20465;-71
2022/01/30 14:19:48;;;;;;;4.83;3.23;;;;;;;;;;5104714;28;20455;-71
2022/01/30 14:22:20;;;;;;;3.87;2.73;;;;;;;;;;5097941;28;20213;-71
2022/01/30 14:24:52;;;;;;;6.17;4.50;;;;;;;;;;5097964;28;20228;-71
2022/01/30 14:27:21;;;;;;;4.77;3.20;;;;;;;;;;5097737;28;20584;-71
2022/01/30 14:29:53;;;;;;;4.37;3.30;;;;;;;;;;5111324;28;20201;-71
2022/01/30 14:32:21;;;;;;;3.30;3.00;;;;;;;;;;5117990;28;20295;-71
2022/01/30 14:34:50;;;;;;;8.43;3.40;;;;;;;;;;5103845;28;20198;-72
2022/01/30 14:37:18;;;;;;;3.30;2.57;;;;;;;;;;5097420;28;20247;-72
2022/01/30 14:39:54;;;;;;;3.57;2.93;;;;;;;;;;5111365;28;20732;-72
2022/01/30 14:42:23;;;;;;;2.37;2.17;;;;;;;;;;5118212;28;20659;-71
2022/01/30 14:44:51;;;;;;;3.13;2.33;;;;;;;;;;5116892;28;20217;-71
2022/01/30 14:47:19;;;;;;;2.60;2.23;;;;;;;;;;5117624;28;20225;-71
2022/01/30 14:49:49;;;;;;;2.90;2.40;;;;;;;;;;5104022;28;20657;-71
2022/01/30 14:52:17;;;;;;;2.53;1.93;;;;;;;;;;5097860;28;20224;-72
2022/01/30 14:54:45;;;;;;;2.77;1.83;;;;;;;;;;5097311;28;20592;-71
2022/01/30 14:57:13;;;;;;;2.40;2.20;;;;;;;;;;5105617;28;20719;-72
2022/01/30 14:59:42;;;;;;;2.87;2.07;;;;;;;;;;5098068;28;20202;-72
2022/01/30 15:02:11;;;;;;;2.57;1.80;;;;;;;;;;5097231;28;20206;-72
2022/01/30 15:04:39;;;;;;;2.47;1.63;;;;;;;;;;5097521;28;20285;-71
2022/01/30 15:07:08;;;;;;;2.80;1.90;;;;;;;;;;5097437;28;20229;-71
2022/01/30 15:09:36;;;;;;;2.17;1.40;;;;;;;;;;5109216;28;20565;-71
2022/01/30 15:12:04;;;;;;;2.17;1.73;;;;;;;;;;5117621;28;20217;-71
2022/01/30 15:14:37;;;;;;;3.70;2.47;;;;;;;;;;5108958;28;20206;-71
2022/01/30 15:17:08;;;;;;;1.20;1.20;;;;;;;;;;5100691;28;20592;-71
2022/01/30 15:19:56;;;;;;;2.53;2.10;;;;;;;;;;5101513;28;20212;-71
2022/01/30 15:22:24;;;;;;;3.57;1.57;;;;;;;;;;5101095;28;20571;-71
2022/01/30 15:24:53;;;;;;;1.97;1.33;;;;;;;;;;5100987;28;20228;-72
2022/01/30 15:27:21;;;;;;;1.43;1.30;;;;;;;;;;5101071;28;20312;-71
2022/01/30 15:29:49;;;;;;;3.03;1.73;;;;;;;;;;5114919;28;20215;-71
2022/01/30 15:32:18;;;;;;;4.83;1.73;;;;;;;;;;5121028;28;20215;-72